sensor_id;sensor_type;location;lat;lon;timestamp;P1;durP1;ratioP1;P2;durP2;ratioP2
22468;SDS011;11401;50.792;4.352;2023-05-23T03:15:21;17.13;;;11.15;;
22468;SDS011;11401;50.792;4.352;2023-05-23T03:17:49;19.55;;;11.00;;
22468;SDS011;11401;50.792;4.352;2023-05-23T03:20:16;22.33;;;12.57;;
22468;SDS011;11401;50.792;4.352;2023-05-23T03:22:43;17.05;;;12.13;;
22468;SDS011;11401;50.792;4.352;2023-05-23T03:25:11;19.88;;;11.80;;
22468;SDS011;11401;50.792;4.352;2023-05-23T03:27:38;20.42;;;13.30;;
22468;SDS011;11401;50.792;4.352;2023-05-23T03:30:06;19.27;;;12.68;;
22468;SDS011;11401;50.792;4.352;2023-05-23T03:32:34;27.25;;;15.23;;
22468;SDS011;11401;50.792;4.352;2023-05-23T03:35:01;20.17;;;14.13;;
22468;SDS011;11401;50.792;4.352;2023-05-23T03:37:28;25.02;;;13.35;;
22468;SDS011;11401;50.792;4.352;2023-05-23T03:39:56;21.90;;;13.10;;
22468;SDS011;11401;50.792;4.352;2023-05-23T03:42:23;25.48;;;15.23;;
22468;SDS011;11401;50.792;4.352;2023-05-23T03:44:50;31.52;;;15.80;;
22468;SDS011;11401;50.792;4.352;2023-05-23T03:47:18;31.38;;;16.73;;
22468;SDS011;11401;50.792;4.352;2023-05-23T03:49:46;26.98;;;16.15;;
22468;SDS011;11401;50.792;4.352;2023-05-23T03:52:13;28.10;;;16.20;;
22468;SDS011;11401;50.792;4.352;2023-05-23T03:54:40;27.10;;;16.50;;
22468;SDS011;11401;50.792;4.352;2023-05-23T03:57:08;28.67;;;17.52;;
22468;SDS011;11401;50.792;4.352;2023-05-23T03:59:36;28.13;;;16.05;;
22468;SDS011;11401;50.792;4.352;2023-05-23T04:02:07;28.38;;;15.70;;
22468;SDS011;11401;50.792;4.352;2023-05-23T04:04:35;29.90;;;17.10;;
22468;SDS011;11401;50.792;4.352;2023-05-23T04:07:03;25.67;;;17.02;;
22468;SDS011;11401;50.792;4.352;2023-05-23T04:09:31;34.95;;;17.50;;
22468;SDS011;11401;50.792;4.352;2023-05-23T04:11:59;28.90;;;18.08;;
22468;SDS011;11401;50.792;4.352;2023-05-23T04:14:27;25.83;;;18.45;;
22468;SDS011;11401;50.792;4.352;2023-05-23T04:16:56;28.38;;;19.13;;
22468;SDS011;11401;50.792;4.352;2023-05-23T04:19:24;38.88;;;19.20;;
22468;SDS011;11401;50.792;4.352;2023-05-23T04:21:52;36.83;;;18.88;;
22468;SDS011;11401;50.792;4.352;2023-05-23T04:24:19;33.03;;;17.38;;
22468;SDS011;11401;50.792;4.352;2023-05-23T04:26:49;29.65;;;17.98;;
22468;SDS011;11401;50.792;4.352;2023-05-23T04:29:16;29.05;;;16.45;;
22468;SDS011;11401;50.792;4.352;2023-05-23T04:31:43;31.27;;;17.05;;
22468;SDS011;11401;50.792;4.352;2023-05-23T04:34:11;30.20;;;15.00;;
22468;SDS011;11401;50.792;4.352;2023-05-23T04:36:38;23.48;;;14.52;;
22468;SDS011;11401;50.792;4.352;2023-05-23T04:39:06;25.98;;;15.52;;
22468;SDS011;11401;50.792;4.352;2023-05-23T04:41:40;22.23;;;14.13;;
22468;SDS011;11401;50.792;4.352;2023-05-23T04:44:30;22.85;;;14.95;;
22468;SDS011;11401;50.792;4.352;2023-05-23T04:47:14;24.08;;;13.70;;
22468;SDS011;11401;50.792;4.352;2023-05-23T04:50:02;20.10;;;12.25;;
22468;SDS011;11401;50.792;4.352;2023-05-23T04:52:30;22.70;;;13.68;;
22468;SDS011;11401;50.792;4.352;2023-05-23T04:54:59;22.90;;;13.10;;
22468;SDS011;11401;50.792;4.352;2023-05-23T04:57:27;21.63;;;13.05;;
22468;SDS011;11401;50.792;4.352;2023-05-23T04:59:54;22.17;;;12.75;;
22468;SDS011;11401;50.792;4.352;2023-05-23T05:02:24;25.65;;;12.88;;
22468;SDS011;11401;50.792;4.352;2023-05-23T05:04:52;17.35;;;11.18;;
22468;SDS011;11401;50.792;4.352;2023-05-23T05:07:19;17.38;;;11.90;;
22468;SDS011;11401;50.792;4.352;2023-05-23T05:09:46;16.67;;;11.25;;
22468;SDS011;11401;50.792;4.352;2023-05-23T05:12:13;21.23;;;11.35;;
22468;SDS011;11401;50.792;4.352;2023-05-23T05:14:40;22.63;;;13.38;;
22468;SDS011;11401;50.792;4.352;2023-05-23T05:17:07;25.95;;;14.60;;
22468;SDS011;11401;50.792;4.352;2023-05-23T05:19:44;25.17;;;14.73;;
22468;SDS011;11401;50.792;4.352;2023-05-23T05:22:11;25.48;;;15.73;;
22468;SDS011;11401;50.792;4.352;2023-05-23T05:24:39;25.15;;;14.68;;
22468;SDS011;11401;50.792;4.352;2023-05-23T05:27:06;25.30;;;15.52;;
22468;SDS011;11401;50.792;4.352;2023-05-23T05:29:35;19.33;;;15.18;;
22468;SDS011;11401;50.792;4.352;2023-05-23T05:32:02;21.60;;;13.68;;
22468;SDS011;11401;50.792;4.352;2023-05-23T05:34:29;22.40;;;13.63;;
22468;SDS011;11401;50.792;4.352;2023-05-23T05:36:57;21.67;;;13.32;;
22468;SDS011;11401;50.792;4.352;2023-05-23T05:39:25;22.55;;;13.23;;
22468;SDS011;11401;50.792;4.352;2023-05-23T05:41:53;23.17;;;11.95;;
22468;SDS011;11401;50.792;4.352;2023-05-23T05:44:21;30.38;;;13.77;;
22468;SDS011;11401;50.792;4.352;2023-05-23T05:46:49;21.17;;;12.18;;
22468;SDS011;11401;50.792;4.352;2023-05-23T05:49:17;21.67;;;11.63;;
22468;SDS011;11401;50.792;4.352;2023-05-23T05:51:45;20.20;;;10.63;;
22468;SDS011;11401;50.792;4.352;2023-05-23T05:54:12;20.65;;;9.73;;
22468;SDS011;11401;50.792;4.352;2023-05-23T05:56:40;13.18;;;9.15;;
22468;SDS011;11401;50.792;4.352;2023-05-23T05:59:08;12.82;;;8.48;;
22468;SDS011;11401;50.792;4.352;2023-05-23T06:01:36;20.77;;;10.43;;
22468;SDS011;11401;50.792;4.352;2023-05-23T06:04:04;12.77;;;8.50;;
22468;SDS011;11401;50.792;4.352;2023-05-23T06:06:32;24.08;;;9.10;;
22468;SDS011;11401;50.792;4.352;2023-05-23T06:09:00;25.27;;;10.85;;
22468;SDS011;11401;50.792;4.352;2023-05-23T06:11:28;26.85;;;10.48;;
22468;SDS011;11401;50.792;4.352;2023-05-23T06:13:56;20.40;;;9.77;;
22468;SDS011;11401;50.792;4.352;2023-05-23T06:16:23;27.50;;;10.95;;
22468;SDS011;11401;50.792;4.352;2023-05-23T06:18:50;25.67;;;10.73;;
22468;SDS011;11401;50.792;4.352;2023-05-23T06:21:21;28.50;;;11.80;;
22468;SDS011;11401;50.792;4.352;2023-05-23T06:23:49;30.58;;;11.82;;
22468;SDS011;11401;50.792;4.352;2023-05-23T06:26:17;18.30;;;10.10;;
